Weather at Dinnerbell Airport

Public forecast

Using degrees Fahrenheit for public forecast. Weather courtesy of forecast.io.

Closest aviation weather report (METAR) to Dinnerbell Airport

Closest report is Fond du Lac County Airport, 9.6 nm (17.7 km) WNW. Retrieved 2021/06/23 01:53 UTC (12 minutes ago):

KFLD 230153Z AUTO 00000KT 10SM CLR 17/08 A2994 RMK AO2 SLP137 T01720078

Closest aviation forecast (TAF) to Dinnerbell Airport

Closest forecast is Sheboygan County Memorial Airport, 19.2 nm (35.5 km) E. Retrieved 2021-06-23 00:33 UTC (2 hours ago):

TAF KSBM 222330Z 2300/2324 VRB05KT P6SM SCT080 FM230500 15005KT P6SM FEW080 SCT150 FM231200 20007KT P6SM SCT025 BKN050 TEMPO 2313/2316 6SM -SHRA BKN025 FM231600 20011KT P6SM BKN025 FM231900 19012G20KT P6SM BKN040